createdAt,value
2022-11-16T00:00:21.338Z,7.56
2022-11-16T00:03:23.704Z,7.60
2022-11-16T00:06:26.606Z,7.58
2022-11-16T00:09:31.909Z,7.55
2022-11-16T00:12:34.053Z,7.62
2022-11-16T00:15:36.572Z,7.59
2022-11-16T00:18:38.640Z,7.55
2022-11-16T00:21:41.631Z,7.54
2022-11-16T00:24:43.705Z,7.54
2022-11-16T00:27:46.053Z,7.55
2022-11-16T00:30:57.160Z,7.52
2022-11-16T00:33:59.738Z,7.53
2022-11-16T00:37:02.711Z,7.50
2022-11-16T00:40:05.678Z,7.53
2022-11-16T00:43:07.977Z,7.52
2022-11-16T00:46:10.611Z,7.53
2022-11-16T00:49:12.794Z,7.53
2022-11-16T00:52:15.157Z,7.58
2022-11-16T00:55:17.230Z,7.63
2022-11-16T00:58:19.576Z,7.56
2022-11-16T01:01:23.858Z,7.63
2022-11-16T01:04:26.361Z,7.68
2022-11-16T01:07:28.528Z,7.69
2022-11-16T01:10:30.908Z,7.68
2022-11-16T01:13:33.206Z,7.65
2022-11-16T01:16:36.031Z,7.71
2022-11-16T01:19:38.740Z,7.70
2022-11-16T01:22:41.481Z,7.64
2022-11-16T01:25:43.697Z,7.64
2022-11-16T01:28:46.111Z,7.62
2022-11-16T01:31:48.522Z,7.58
2022-11-16T01:34:51.303Z,7.64
2022-11-16T01:37:54.331Z,7.68
2022-11-16T01:40:57.052Z,7.67
2022-11-16T01:44:02.797Z,7.62
2022-11-16T01:47:16.463Z,7.68
2022-11-16T01:50:20.698Z,7.71
2022-11-16T01:53:24.879Z,7.72
2022-11-16T01:56:27.795Z,7.68
2022-11-16T01:59:32.799Z,7.64
2022-11-16T02:02:35.198Z,7.72
2022-11-16T02:05:52.780Z,7.72
2022-11-16T02:09:49.773Z,7.70
2022-11-16T02:13:02.644Z,7.69
2022-11-16T02:16:39.063Z,7.74
2022-11-16T02:19:59.941Z,7.72
2022-11-16T02:23:04.862Z,7.74
2022-11-16T02:26:38.672Z,7.78
2022-11-16T02:29:45.495Z,7.78
2022-11-16T02:33:01.740Z,7.77
2022-11-16T02:36:07.627Z,7.77
2022-11-16T02:39:16.389Z,7.78
2022-11-16T02:42:26.322Z,7.76
2022-11-16T02:45:32.317Z,7.69
2022-11-16T02:48:39.050Z,7.74
2022-11-16T02:51:42.838Z,7.75
2022-11-16T02:54:45.261Z,7.83
2022-11-16T02:58:09.573Z,7.75
2022-11-16T03:01:19.018Z,7.79
2022-11-16T03:04:36.220Z,7.81
2022-11-16T03:07:46.279Z,7.77
2022-11-16T03:11:20.254Z,7.86
2022-11-16T03:14:29.344Z,7.85
2022-11-16T03:17:42.105Z,7.88
2022-11-16T03:20:48.079Z,7.83
2022-11-16T03:23:50.683Z,7.85
2022-11-16T03:27:02.277Z,7.92
2022-11-16T03:30:14.495Z,7.88
2022-11-16T03:33:38.762Z,7.88
2022-11-16T03:36:44.782Z,7.84
2022-11-16T03:39:48.723Z,7.90
2022-11-16T03:42:52.095Z,7.92
2022-11-16T03:45:55.238Z,7.92
2022-11-16T03:48:59.514Z,7.94
2022-11-16T03:52:02.261Z,7.91
2022-11-16T03:55:05.576Z,7.84
2022-11-16T03:58:09.153Z,7.97
2022-11-16T04:01:11.546Z,7.87
2022-11-16T04:04:35.101Z,7.88
2022-11-16T04:07:57.461Z,7.85
2022-11-16T04:11:20.282Z,7.82
2022-11-16T04:14:42.896Z,7.91
2022-11-16T04:18:04.275Z,7.85
2022-11-16T04:21:36.733Z,7.86
2022-11-16T04:24:44.075Z,7.86
2022-11-16T04:28:05.073Z,7.90
2022-11-16T04:31:26.077Z,7.90
2022-11-16T04:34:48.794Z,7.93
2022-11-16T04:37:53.277Z,7.86
2022-11-16T04:40:55.656Z,7.94
2022-11-16T04:43:58.857Z,7.97
2022-11-16T04:47:06.830Z,7.92
2022-11-16T04:50:09.829Z,7.95
2022-11-16T04:53:13.659Z,7.93
2022-11-16T04:56:18.219Z,8.01
2022-11-16T04:59:21.298Z,7.95
2022-11-16T05:02:23.669Z,7.96
2022-11-16T05:05:26.130Z,7.98
2022-11-16T05:08:28.726Z,7.94
2022-11-16T05:11:31.021Z,7.95
2022-11-16T05:14:33.961Z,7.98
2022-11-16T05:17:36.329Z,7.95
2022-11-16T05:20:58.148Z,7.95
2022-11-16T05:24:19.283Z,7.96
2022-11-16T05:27:23.011Z,7.95
2022-11-16T05:30:25.425Z,7.93
2022-11-16T05:33:27.823Z,7.88
2022-11-16T05:36:29.913Z,7.93
2022-11-16T05:39:32.303Z,7.95
2022-11-16T05:42:34.684Z,7.94
2022-11-16T05:45:37.478Z,7.93
2022-11-16T05:48:41.626Z,7.90
2022-11-16T05:51:45.831Z,7.92
2022-11-16T05:54:48.409Z,7.93
2022-11-16T05:57:51.133Z,7.98
2022-11-16T06:00:53.293Z,7.97
2022-11-16T06:03:56.022Z,7.95
2022-11-16T06:06:58.776Z,7.91
2022-11-16T06:10:03.188Z,7.90
2022-11-16T06:13:06.672Z,7.97
2022-11-16T06:16:09.509Z,7.96
2022-11-16T06:19:11.690Z,7.95
2022-11-16T06:22:14.095Z,7.94
2022-11-16T06:25:16.207Z,7.98
2022-11-16T06:28:18.780Z,8.01
2022-11-16T06:31:21.204Z,8.00
2022-11-16T06:34:24.639Z,8.04
2022-11-16T06:37:27.011Z,7.93
2022-11-16T06:40:29.408Z,7.89
2022-11-16T06:43:31.872Z,8.01
2022-11-16T06:46:35.384Z,7.93
2022-11-16T06:49:38.010Z,7.85
2022-11-16T06:52:41.336Z,7.92
2022-11-16T06:55:43.630Z,7.90
2022-11-16T06:58:46.163Z,7.90
2022-11-16T07:01:49.068Z,7.93
2022-11-16T07:04:52.029Z,7.90
2022-11-16T07:07:55.325Z,7.87
2022-11-16T07:11:04.266Z,7.88
2022-11-16T07:14:08.371Z,7.92
2022-11-16T07:17:11.515Z,7.95
2022-11-16T07:20:15.067Z,7.97
2022-11-16T07:23:19.844Z,7.86
2022-11-16T07:26:22.751Z,7.91
2022-11-16T07:29:26.355Z,7.94
2022-11-16T07:32:35.544Z,7.95
2022-11-16T07:35:38.288Z,7.94
2022-11-16T07:38:40.572Z,7.99
2022-11-16T07:41:44.210Z,8.04
2022-11-16T07:44:47.233Z,8.04
2022-11-16T07:47:52.335Z,8.05
2022-11-16T07:51:03.305Z,8.07
2022-11-16T07:54:06.649Z,8.07
2022-11-16T07:57:08.853Z,8.04
2022-11-16T08:00:11.757Z,8.09
2022-11-16T08:03:19.234Z,8.06
2022-11-16T08:06:28.218Z,8.10
2022-11-16T08:09:30.742Z,8.08
2022-11-16T08:12:33.458Z,8.12
2022-11-16T08:15:35.545Z,8.19
2022-11-16T08:18:39.872Z,8.22
2022-11-16T08:21:42.348Z,8.18
2022-11-16T08:24:44.898Z,8.29
2022-11-16T08:27:47.765Z,8.30
2022-11-16T08:30:53.981Z,8.30
2022-11-16T08:33:56.808Z,8.33
2022-11-16T08:36:59.400Z,8.29
2022-11-16T08:40:03.621Z,8.40
2022-11-16T08:43:08.268Z,8.33
2022-11-16T08:46:11.102Z,8.34
2022-11-16T08:49:13.829Z,8.39
2022-11-16T08:52:16.017Z,8.35
2022-11-16T08:55:18.863Z,8.45
2022-11-16T08:58:22.637Z,8.37
2022-11-16T09:01:30.361Z,8.43
2022-11-16T09:04:36.843Z,8.50
2022-11-16T09:07:40.104Z,8.48
2022-11-16T09:10:42.227Z,8.56
2022-11-16T09:13:46.914Z,8.57
2022-11-16T09:16:49.057Z,8.56
2022-11-16T09:19:51.425Z,8.48
2022-11-16T09:22:53.518Z,8.56
2022-11-16T09:25:56.069Z,8.56
2022-11-16T09:29:00.176Z,8.67
2022-11-16T09:32:02.948Z,8.58
2022-11-16T09:35:05.334Z,8.67
2022-11-16T09:38:09.864Z,8.67
2022-11-16T09:41:15.033Z,8.66
2022-11-16T09:44:31.699Z,8.61
2022-11-16T09:47:36.698Z,8.56
2022-11-16T09:50:45.673Z,8.66
2022-11-16T09:53:58.349Z,8.67
2022-11-16T09:57:12.052Z,8.70
2022-11-16T10:00:23.662Z,8.68
2022-11-16T10:03:28.730Z,8.68
2022-11-16T10:07:02.764Z,8.64
2022-11-16T10:10:06.139Z,8.58
2022-11-16T10:13:31.592Z,8.63
2022-11-16T10:16:48.522Z,8.59
2022-11-16T10:20:07.357Z,8.57
2022-11-16T10:23:31.801Z,8.59
2022-11-16T10:26:56.160Z,8.64
2022-11-16T10:30:07.675Z,8.71
2022-11-16T10:33:22.007Z,8.75
2022-11-16T10:36:30.190Z,8.81
2022-11-16T10:39:34.122Z,8.74
2022-11-16T10:42:40.924Z,8.83
2022-11-16T10:46:00.815Z,8.81
2022-11-16T10:49:21.520Z,8.93
2022-11-16T10:52:24.119Z,8.87
2022-11-16T10:55:28.659Z,8.85
2022-11-16T10:58:50.004Z,8.99
2022-11-16T11:01:57.432Z,9.01
2022-11-16T11:05:20.266Z,8.94
2022-11-16T11:08:30.449Z,9.03
2022-11-16T11:11:51.278Z,8.96
2022-11-16T11:14:58.097Z,8.92
2022-11-16T11:18:23.277Z,8.99
2022-11-16T11:21:27.526Z,9.04
2022-11-16T11:24:44.032Z,8.97
2022-11-16T11:27:47.370Z,9.06
2022-11-16T11:31:07.096Z,8.90
2022-11-16T11:34:09.384Z,8.91
2022-11-16T11:37:27.532Z,8.85
2022-11-16T11:40:30.961Z,8.87
2022-11-16T11:43:37.191Z,8.93
2022-11-16T11:47:35.281Z,9.03
2022-11-16T11:50:33.481Z,8.99
2022-11-16T11:53:59.241Z,8.89
2022-11-16T11:57:04.353Z,8.98
2022-11-16T12:00:07.670Z,8.94
2022-11-16T12:03:41.675Z,9.01
2022-11-16T12:06:54.074Z,8.94
2022-11-16T12:10:27.390Z,8.87
2022-11-16T12:14:08.720Z,8.98
2022-11-16T12:17:24.967Z,8.97
2022-11-16T12:21:00.789Z,8.98
2022-11-16T12:24:30.438Z,9.00
2022-11-16T12:28:03.949Z,9.14
2022-11-16T12:31:24.352Z,9.03
2022-11-16T12:34:52.500Z,9.00
2022-11-16T12:37:59.574Z,9.03
2022-11-16T12:41:49.977Z,8.99
2022-11-16T12:45:10.184Z,8.92
2022-11-16T12:48:33.384Z,8.87
2022-11-16T12:51:51.990Z,8.94
2022-11-16T12:55:28.478Z,8.92
2022-11-16T12:59:19.977Z,8.90
2022-11-16T13:02:47.138Z,8.95
2022-11-16T13:06:06.646Z,8.88
2022-11-16T13:09:30.025Z,8.95
2022-11-16T13:12:35.267Z,8.90
2022-11-16T13:15:40.695Z,8.88
2022-11-16T13:18:44.140Z,8.83
2022-11-16T13:22:11.512Z,8.85
2022-11-16T13:25:40.400Z,8.85
2022-11-16T13:29:22.090Z,8.88
2022-11-16T13:32:34.861Z,8.76
2022-11-16T13:35:38.589Z,8.76
2022-11-16T13:38:53.708Z,8.78
2022-11-16T13:42:11.398Z,8.78
2022-11-16T13:45:22.077Z,8.81
2022-11-16T13:48:27.424Z,8.93
2022-11-16T13:51:29.517Z,8.84
2022-11-16T13:54:50.475Z,8.89
2022-11-16T13:57:55.611Z,8.85
2022-11-16T14:01:02.475Z,8.95
2022-11-16T14:04:34.770Z,8.91
2022-11-16T14:07:47.093Z,8.97
2022-11-16T14:10:52.016Z,9.06
2022-11-16T14:13:54.799Z,8.98
2022-11-16T14:16:57.154Z,8.98
2022-11-16T14:19:59.325Z,8.97
2022-11-16T14:23:09.085Z,8.92
2022-11-16T14:26:26.446Z,8.83
2022-11-16T14:29:47.669Z,8.76
2022-11-16T14:32:52.643Z,8.74
2022-11-16T14:35:55.682Z,8.71
2022-11-16T14:39:23.040Z,8.82
2022-11-16T14:42:38.207Z,8.84
2022-11-16T14:46:04.586Z,8.89
2022-11-16T14:49:13.743Z,8.79
2022-11-16T14:52:20.557Z,8.78
2022-11-16T14:55:25.677Z,8.77
2022-11-16T14:58:28.749Z,8.77
2022-11-16T15:01:38.887Z,8.79
2022-11-16T15:04:41.051Z,8.75
2022-11-16T15:07:45.099Z,8.73
2022-11-16T15:10:52.322Z,8.73
2022-11-16T15:13:55.480Z,8.84
2022-11-16T15:16:59.916Z,8.81
2022-11-16T15:20:14.117Z,8.79
2022-11-16T15:23:17.310Z,8.80
2022-11-16T15:26:23.877Z,8.71
2022-11-16T15:29:26.086Z,8.73
2022-11-16T15:32:28.778Z,8.67
2022-11-16T15:35:36.274Z,8.73
2022-11-16T15:38:38.776Z,8.75
2022-11-16T15:41:41.859Z,8.73
2022-11-16T15:44:44.828Z,8.70
2022-11-16T15:47:47.368Z,8.71
2022-11-16T15:51:15.887Z,8.71
2022-11-16T15:54:29.786Z,8.74
2022-11-16T15:57:32.146Z,8.71
2022-11-16T16:00:36.819Z,8.70
2022-11-16T16:03:44.842Z,8.68
2022-11-16T16:06:48.702Z,8.73
2022-11-16T16:10:12.319Z,8.77
2022-11-16T16:13:29.946Z,8.73
2022-11-16T16:16:37.649Z,8.75
2022-11-16T16:19:44.032Z,8.83
2022-11-16T16:22:46.574Z,8.81
2022-11-16T16:25:50.683Z,8.78
2022-11-16T16:28:53.297Z,8.81
2022-11-16T16:31:56.141Z,8.72
2022-11-16T16:35:07.352Z,8.77
2022-11-16T16:38:13.116Z,8.73
2022-11-16T16:41:23.749Z,8.75
2022-11-16T16:44:26.228Z,8.74
2022-11-16T16:47:28.753Z,8.73
2022-11-16T16:50:31.117Z,8.73
2022-11-16T16:53:33.795Z,8.74
2022-11-16T16:56:36.066Z,8.71
2022-11-16T16:59:38.428Z,8.67
2022-11-16T17:02:40.619Z,8.65
2022-11-16T17:05:43.202Z,8.63
2022-11-16T17:08:45.315Z,8.70
2022-11-16T17:11:48.110Z,8.71
2022-11-16T17:14:53.174Z,8.74
2022-11-16T17:17:57.771Z,8.68
2022-11-16T17:21:07.869Z,8.73
2022-11-16T17:24:10.477Z,8.74
2022-11-16T17:27:12.711Z,8.71
2022-11-16T17:30:15.423Z,8.62
2022-11-16T17:33:17.489Z,8.64
2022-11-16T17:36:20.428Z,8.70
2022-11-16T17:39:23.594Z,8.67
2022-11-16T17:42:25.938Z,8.69
2022-11-16T17:45:28.179Z,8.65
2022-11-16T17:48:30.598Z,8.67
2022-11-16T17:51:32.717Z,8.70
2022-11-16T17:54:35.061Z,8.77
2022-11-16T17:57:37.142Z,8.75
2022-11-16T18:00:39.474Z,8.73
2022-11-16T18:03:41.954Z,8.67
2022-11-16T18:06:44.028Z,8.73
2022-11-16T18:09:46.382Z,8.71
2022-11-16T18:12:48.574Z,8.71
2022-11-16T18:15:50.930Z,8.66
2022-11-16T18:19:00.748Z,8.68
2022-11-16T18:22:03.139Z,8.76
2022-11-16T18:25:05.620Z,8.70
2022-11-16T18:28:07.962Z,8.68
2022-11-16T18:31:12.862Z,8.68
2022-11-16T18:34:15.406Z,8.66
2022-11-16T18:37:17.460Z,8.63
2022-11-16T18:40:19.953Z,8.63
2022-11-16T18:43:22.309Z,8.66
2022-11-16T18:46:29.719Z,8.68
2022-11-16T18:49:31.784Z,8.75
2022-11-16T18:52:34.147Z,8.68
2022-11-16T18:55:36.202Z,8.72
2022-11-16T18:58:54.626Z,8.73
2022-11-16T19:01:56.735Z,8.71
2022-11-16T19:04:59.085Z,8.70
2022-11-16T19:08:01.167Z,8.65
2022-11-16T19:11:05.643Z,8.68
2022-11-16T19:14:07.949Z,8.62
2022-11-16T19:17:10.330Z,8.66
2022-11-16T19:20:12.787Z,8.66
2022-11-16T19:23:15.387Z,8.71
2022-11-16T19:26:18.905Z,8.63
2022-11-16T19:29:21.277Z,8.65
2022-11-16T19:32:23.391Z,8.62
2022-11-16T19:35:26.345Z,8.64
2022-11-16T19:38:29.277Z,8.69
2022-11-16T19:41:31.979Z,8.73
2022-11-16T19:44:34.054Z,8.72
2022-11-16T19:47:36.420Z,8.66
2022-11-16T19:50:38.531Z,8.66
2022-11-16T19:53:41.011Z,8.62
2022-11-16T19:56:43.606Z,8.63
2022-11-16T19:59:48.683Z,8.64
2022-11-16T20:02:57.101Z,8.65
2022-11-16T20:06:11.078Z,8.66
2022-11-16T20:09:13.227Z,8.64
2022-11-16T20:12:15.614Z,8.67
2022-11-16T20:15:18.130Z,8.67
2022-11-16T20:18:20.468Z,8.65
2022-11-16T20:21:32.914Z,8.61
2022-11-16T20:24:35.271Z,8.63
2022-11-16T20:27:37.423Z,8.62
2022-11-16T20:30:45.641Z,8.68
2022-11-16T20:33:52.578Z,8.64
2022-11-16T20:36:54.978Z,8.62
2022-11-16T20:39:57.323Z,8.60
2022-11-16T20:43:00.211Z,8.69
2022-11-16T20:46:02.316Z,8.68
2022-11-16T20:49:04.778Z,8.68
2022-11-16T20:52:06.859Z,8.69
2022-11-16T20:55:09.741Z,8.78
2022-11-16T20:58:12.184Z,8.71
2022-11-16T21:01:21.233Z,8.62
2022-11-16T21:04:23.411Z,8.69
2022-11-16T21:07:25.785Z,8.71
2022-11-16T21:10:28.744Z,8.70
2022-11-16T21:13:49.714Z,8.73
2022-11-16T21:16:51.830Z,8.77
2022-11-16T21:20:20.132Z,8.73
2022-11-16T21:23:16.549Z,8.68
2022-11-16T21:26:21.516Z,8.65
2022-11-16T21:29:25.912Z,8.67
2022-11-16T21:32:28.300Z,8.64
2022-11-16T21:35:30.467Z,8.70
2022-11-16T21:38:34.028Z,8.69
2022-11-16T21:41:36.138Z,8.75
2022-11-16T21:44:44.498Z,8.70
2022-11-16T21:47:46.599Z,8.71
2022-11-16T21:51:02.584Z,8.70
2022-11-16T21:54:04.884Z,8.70
2022-11-16T21:57:07.584Z,8.72
2022-11-16T22:00:10.570Z,8.72
2022-11-16T22:03:13.553Z,8.73
2022-11-16T22:06:35.119Z,8.77
2022-11-16T22:09:37.348Z,8.74
2022-11-16T22:12:39.801Z,8.76
2022-11-16T22:15:41.906Z,8.73
2022-11-16T22:18:44.561Z,8.65
2022-11-16T22:21:46.671Z,8.55
2022-11-16T22:24:49.084Z,8.60
2022-11-16T22:28:20.341Z,8.60
2022-11-16T22:31:14.923Z,8.57
2022-11-16T22:34:17.046Z,8.61
2022-11-16T22:37:19.382Z,8.60
2022-11-16T22:40:21.646Z,8.65
2022-11-16T22:43:27.054Z,8.67
2022-11-16T22:46:29.185Z,8.63
2022-11-16T22:49:31.680Z,8.64
2022-11-16T22:52:33.805Z,8.67
2022-11-16T22:55:38.068Z,8.68
2022-11-16T22:58:40.564Z,8.61
2022-11-16T23:01:43.206Z,8.58
2022-11-16T23:04:45.452Z,8.57
2022-11-16T23:07:47.809Z,8.54
2022-11-16T23:11:15.320Z,8.54
2022-11-16T23:14:36.363Z,8.51
2022-11-16T23:17:38.474Z,8.56
2022-11-16T23:20:59.652Z,8.47
2022-11-16T23:24:20.585Z,8.50
2022-11-16T23:27:30.148Z,8.51
2022-11-16T23:30:34.975Z,8.48
2022-11-16T23:33:47.764Z,8.46
2022-11-16T23:36:49.867Z,8.44
2022-11-16T23:39:52.282Z,8.46
2022-11-16T23:43:14.085Z,8.45
2022-11-16T23:46:16.435Z,8.36
2022-11-16T23:49:18.589Z,8.39
2022-11-16T23:52:20.932Z,8.32
2022-11-16T23:55:23.158Z,8.35
2022-11-16T23:58:25.518Z,8.39
